Weather observations for the past three days for
College Park Airport
Imperial (Metric)
Date Time (edt) Wind (mph) Vis. (mi.) Weather Sky Cond. Temperature (ºF) Relative Humidity Wind Chill (°F) Heat Index (°F) Pressure Precipitation (in)
Air Dwpt 6 hour altimeter (in) sea level (mb) 1 hr 3 hr 6 hr
Max. Min.
04 00:55 Calm 10.00 Fair CLR 43 38.3 84% 30.01 0.0
04 00:35 Calm 10.00 Fair CLR 42.4 36.9 81% 30.01 0.0
04 00:15 Calm 10.00 Fair CLR 42.6 35.2 75% 30.01 0.0
03 23:55 Calm 10.00 Fair CLR 42.6 36 77% 30.01 0.0
03 23:35 Calm 10.00 Fair CLR 43.2 34.7 72% 30.01 0.0
03 23:15 Calm 10.00 Fair CLR 43.7 34.9 71% 30 0.0
03 22:55 Calm 10.00 Fair CLR 44.2 34.7 69% 30 0.0
03 22:35 Calm 10.00 Fair CLR 44.4 35.1 70% 29.99 0.0
03 22:15 Calm 10.00 Fair CLR 45.9 35.1 66% 29.99 0.0
03 21:55 Calm 10.00 Fair CLR 46.4 34.7 64% 29.99 0.0
03 21:35 Calm 10.00 Fair CLR 47.5 35.4 63% 29.99 0.0
03 21:15 Calm 10.00 Fair CLR 49.3 34 56% 29.98 0.0
03 20:55 Calm 10.00 Fair CLR 50.7 33.8 52% 29.98 0.0
03 20:35 Calm 10.00 Fair CLR 53.2 31.3 43% 29.97 0.0
03 20:15 Calm 10.00 Fair CLR 55.2 30.9 40% 29.97 0.0
03 19:55 Calm 10.00 Fair CLR 60.3 25.3 63.1 57.2 26% 29.96 0.0
03 19:35 SW 3 10.00 Fair CLR 61.3 24.1 24% 29.96 0.0
03 19:15 SW 7 10.00 Fair CLR 61.7 25 25% 29.95 0.0
03 18:55 W 6 10.00 Fair CLR 61.9 24.1 24% 29.96 0.0
03 18:35 W 13 G 16 10.00 Fair CLR 62.6 23.7 23% 29.96 0.0
03 18:15 W 6 10.00 Fair CLR 62.4 23.5 23% 29.96 0.0
03 17:55 W 6 G 20 10.00 Fair CLR 62.8 24.6 23% 29.96 0.0
03 17:35 W 9 10.00 Fair CLR 62.8 25.9 25% 29.96 0.0
03 17:15 W 10 10.00 Partly Cloudy SCT085 62.2 24.4 24% 29.96 0.0
03 16:55 W 15 G 21 10.00 Partly Cloudy SCT085 62.4 24.3 23% 29.96 0.0
03 16:35 W 9 10.00 Fair CLR 61 24.8 25% 29.96 0.0
03 16:15 W 12 G 20 10.00 Fair CLR 61 25 25% 29.98 0.0
03 15:55 NW 13 G 16 10.00 Partly Cloudy SCT080 60.4 26.2 27% 29.98 0.0
03 15:35 W 14 10.00 Mostly Cloudy BKN080 61 26.8 27% 29.99 0.0
03 15:15 NW 9 10.00 Mostly Cloudy BKN070 59.5 27.3 29% 30 0.0
03 14:55 NW 13 G 20 10.00 Partly Cloudy SCT070 59.2 26.1 28% 30.01 0.0
03 14:35 NW 5 G 22 10.00 Partly Cloudy SCT070 58.3 26.2 29% 30.01 0.0
03 14:15 W 12 10.00 Partly Cloudy SCT070 58.1 27.9 32% 30.02 0.0
03 13:55 NW 10 G 17 10.00 Mostly Cloudy BKN070 58.1 26.2 58.6 46.2 29% 30.02 0.0
03 13:35 W 13 G 22 10.00 Partly Cloudy SCT070 57.6 27.3 31% 30.03 0.0
03 13:15 NW 16 G 20 10.00 Partly Cloudy SCT070 56.1 25.3 31% 30.03 0.0
03 12:55 NW 9 G 20 10.00 Partly Cloudy SCT070 55.4 25.2 31% 30.03 0.0
03 12:35 NW 13 G 20 10.00 Partly Cloudy SCT065 55.4 25.7 32% 30.04 0.0
03 12:15 NW 12 G 22 10.00 Fair CLR 55.2 26.8 33% 30.04 0.0
03 11:55 NW 12 G 20 10.00 Fair CLR 54.3 26.2 34% 30.05 0.0
03 11:35 W 14 G 22 10.00 Fair CLR 54 26.1 34% 30.05 0.0
03 11:15 NW 14 G 20 10.00 Partly Cloudy SCT060 52.9 25.3 34% 30.05 0.0
03 10:55 W 14 G 25 10.00 Partly Cloudy SCT060 51.4 24.4 35% 30.05 0.0
03 10:35 NW 8 G 21 10.00 Partly Cloudy SCT060 51.4 24.1 34% 30.05 0.0
03 10:15 NW 12 G 18 10.00 Partly Cloudy SCT060 50.9 24.8 36% 30.05 0.0
03 09:55 W 15 G 23 10.00 Fair CLR 50 23.7 36% 45 30.06 0.0
03 09:35 NW 14 G 20 10.00 Fair CLR 49.6 25.2 38% 45 30.06 0.0
03 09:15 NW 10 10.00 Fair CLR 49.1 26.1 41% 45 30.06 0.0
03 08:55 W 12 10.00 Fair CLR 48.2 25.9 42% 44 30.06 0.0
03 08:35 NW 9 G 18 10.00 Fair CLR 47.5 26.2 44% 44 30.06 0.0
03 08:15 NW 13 10.00 Fair CLR 46.8 27.3 47% 42 30.05 0.0
03 07:55 NW 10 G 17 10.00 Fair CLR 46 27.9 46.9 42.3 49% 42 30.05 0.0
03 07:35 NW 10 10.00 Fair CLR 45.3 28 51% 41 30.04 0.0
03 07:15 NW 10 10.00 Fair CLR 45 28 52% 40 30.03 0.0
03 06:55 W 9 10.00 Fair CLR 44.2 28.4 54% 40 30.02 0.0
03 06:35 W 7 10.00 Fair CLR 43.3 29.5 58% 40 30.01 0.0
03 06:15 W 6 10.00 Fair CLR 42.8 30.2 61% 40 30 0.0
03 05:55 W 7 10.00 Fair CLR 42.4 30.7 63% 39 29.99 0.0
03 05:35 NW 3 10.00 Fair CLR 42.4 31.3 65% 29.99 0.0
03 05:15 NW 5 10.00 Fair CLR 42.8 31.6 65% 41 29.98 0.0
03 04:55 W 7 10.00 Fair CLR 43.2 31.5 63% 40 29.98 0.0
03 04:35 W 6 10.00 Partly Cloudy SCT085 43.5 31.3 62% 41 29.98 0.0
03 04:15 W 7 10.00 Partly Cloudy SCT085 43.7 31.3 62% 40 29.98 0.0
03 03:55 W 8 10.00 Fair CLR 44.2 31.1 60% 40 29.97 0.0
03 03:35 W 5 10.00 Fair CLR 44.6 31.1 59% 43 29.97 0.0
03 03:15 W 6 10.00 Fair CLR 45 31.3 59% 42 29.96 0.0
03 02:55 W 8 10.00 Fair CLR 45.1 31.1 58% 41 29.96 0.0
03 02:35 W 6 10.00 Partly Cloudy SCT100 45.7 30.9 56% 43 29.95 0.0
03 02:15 W 3 10.00 Partly Cloudy SCT100 46.6 30.9 55% 29.95 0.0
03 01:55 W 6 10.00 Partly Cloudy SCT100 46.8 31.1 55.8 46.6 55% 44 29.95 0.0
03 01:35 W 6 10.00 Partly Cloudy SCT100 47.3 31.5 54% 45 29.95 0.0
03 01:15 W 6 10.00 Fair CLR 47.8 31.6 54% 46 29.95 0.0
03 00:55 NW 7 10.00 Fair CLR 48.6 31.8 53% 46 29.95 0.0
03 00:35 NW 7 10.00 Fair CLR 48.6 32 53% 46 29.96 0.0
03 00:15 NW 7 10.00 Fair CLR 48.9 32.4 53% 46 29.96 0.0
02 23:55 NW 6 10.00 Mostly Cloudy BKN095 49.8 32.2 51% 48 29.96 0.0
02 23:35 NW 10 10.00 Overcast OVC095 50.7 32.2 49% 29.95 0.0
02 23:15 N 8 10.00 Overcast OVC095 51.1 32.2 49% 29.95 0.0
02 22:55 NW 7 10.00 Overcast OVC095 51.4 32.4 48% 29.95 0.0
02 22:35 NW 9 10.00 Overcast OVC095 52.2 31.8 46% 29.95 0.0
02 22:15 NW 6 10.00 Overcast OVC095 52.2 32 46% 29.95 0.0
02 21:55 NW 6 10.00 Mostly Cloudy BKN095 51.8 32.9 49% 29.94 0.0
02 21:35 NW 6 10.00 Mostly Cloudy BKN095 52 32.7 48% 29.94 0.0
02 21:15 N 5 10.00 Mostly Cloudy BKN095 53.4 31.6 44% 29.93 0.0
02 20:55 NW 5 10.00 Partly Cloudy SCT095 54 31.5 42% 29.93 0.0
02 20:35 NW 5 10.00 Fair CLR 54.3 31.1 41% 29.92 0.0
02 20:15 NW 7 10.00 Fair CLR 55.4 30.9 39% 29.91 0.0
02 19:55 NW 5 10.00 Fair CLR 55.8 30.9 61.3 55.6 39% 29.91 0.0
02 19:35 N 7 10.00 Fair CLR 56.5 30.6 37% 29.9 0.0
02 19:15 NW 9 10.00 Partly Cloudy SCT085 56.5 30.9 38% 29.9 0.0
02 18:55 NW 10 10.00 Mostly Cloudy BKN085 57 29.8 36% 29.9 0.0
02 18:35 NW 9 10.00 Overcast SCT070 OVC085 57.6 29.7 35% 29.9 0.0
02 18:15 NW 9 10.00 Mostly Cloudy BKN070 BKN085 58.1 29.8 34% 29.9 0.0
02 17:55 NW 10 10.00 Overcast OVC080 59.2 29.5 32% 29.9 0.0
02 17:35 NW 12 10.00 Mostly Cloudy BKN080 58.8 27.9 31% 29.89 0.0
02 17:15 NW 10 10.00 Mostly Cloudy BKN070 59 27.3 30% 29.89 0.0
02 16:55 NW 6 10.00 Mostly Cloudy BKN070 59.2 28.8 31% 29.88 0.0
02 16:35 N 12 10.00 Overcast OVC080 59.7 29.8 32% 29.88 0.0
02 16:15 NW 8 10.00 Mostly Cloudy BKN080 60.3 30.6 33% 29.88 0.0
02 15:55 NW 13 G 16 10.00 Mostly Cloudy BKN070 60.1 31.3 34% 29.89 0.0
02 15:35 W 8 10.00 Mostly Cloudy BKN070 57.9 30.7 36% 29.9 0.0
02 15:15 NW 5 10.00 Partly Cloudy SCT070 59.2 31.5 35% 29.91 0.0
02 14:55 NW 5 10.00 Mostly Cloudy BKN070 58.3 30.7 35% 29.92 0.0
02 14:35 N 9 10.00 Partly Cloudy SCT070 59 30.4 34% 29.93 0.0
02 14:15 W 8 10.00 Mostly Cloudy BKN070 58.6 32 37% 29.94 0.0
02 13:55 NW 6 10.00 Partly Cloudy SCT060 57.7 30.4 59 49.1 35% 29.94 0.0
02 13:35 NW 10 10.00 Partly Cloudy SCT060 58.5 32.4 37% 29.95 0.0
02 13:15 NE 7 10.00 Partly Cloudy SCT060 57.4 32.5 39% 29.95 0.0
02 12:55 NW 6 10.00 Fair CLR 56.8 32.9 40% 29.95 0.0
02 12:35 NW 8 10.00 Partly Cloudy SCT050 55.9 31.3 39% 29.96 0.0
02 12:15 NW 5 10.00 Partly Cloudy SCT050 54.9 33.3 44% 29.96 0.0
02 11:55 SW 3 10.00 Fair CLR 54.9 33.3 44% 29.97 0.0
02 11:35 N 7 10.00 Fair CLR 55.6 35.4 47% 29.97 0.0
02 11:15 NW 9 10.00 Fair CLR 54.5 34.9 48% 29.98 0.0
02 10:55 N 9 10.00 Fair CLR 54.5 34.9 48% 29.97 0.0
02 10:35 NW 9 10.00 Fair CLR 53.4 34.2 48% 29.97 0.0
02 10:15 N 9 10.00 Fair CLR 53.4 34.9 50% 29.96 0.0
02 09:55 NW 6 10.00 Fair CLR 51.6 35.4 54% 29.97 0.0
02 09:35 N 10 10.00 Fair CLR 50.7 34.9 55% 29.97 0.0
02 09:15 N 8 10.00 Fair CLR 50.5 35.8 57% 29.97 0.0
02 08:55 N 10 10.00 Fair CLR 49.8 36.1 59% 46 29.97 0.0
02 08:35 NW 9 10.00 Fair CLR 49.8 36.7 61% 47 29.97 0.0
02 08:15 NW 9 10.00 Partly Cloudy SCT080 50.2 37.2 61% 29.97 0.0
02 07:55 NW 7 10.00 Fair CLR 49.3 37 56.5 49.1 63% 47 29.97 0.0
02 07:35 NW 8 10.00 Partly Cloudy SCT100 49.1 36.3 62% 46 29.97 0.0
02 07:15 NW 9 10.00 Partly Cloudy SCT100 49.1 35.8 60% 46 29.97 0.0
02 06:55 NW 10 10.00 Mostly Cloudy BKN100 49.6 35.2 58% 46 29.96 0.0
02 06:35 NW 6 10.00 Mostly Cloudy BKN100 49.5 35.8 59% 48 29.95 0.0
02 06:15 NW 8 10.00 Fair CLR 50.2 35.6 57% 29.95 0.0
02 05:55 NW 10 G 21 10.00 Fair CLR 50.9 35.8 56% 29.94 0.0
02 05:35 NW 9 10.00 Fair CLR 51.3 36.7 58% 29.93 0.0
02 05:15 N 7 G 16 10.00 Partly Cloudy SCT090 51.6 37.2 58% 29.93 0.0
02 04:55 NW 12 G 18 10.00 Mostly Cloudy SCT070 BKN100 52.5 37.6 57% 29.93 0.0
02 04:35 NW 8 10.00 Overcast BKN070 OVC100 53.4 38.8 58% 29.93 0.0
02 04:10 NW 7 10.00 Overcast OVC070 53.8 40.3 60% 29.92 0.0
02 03:55 NW 8 10.00 Overcast OVC070 54.3 40.5 60% 29.92 0.0
02 03:35 NW 6 10.00 Overcast OVC070 54.5 41.2 61% 29.92 0.0
02 03:10 NW 7 10.00 Mostly Cloudy BKN070 BKN085 54.3 41.7 63% 29.91 0.0
02 02:35 NW 7 10.00 Mostly Cloudy BKN065 BKN120 55.2 41.7 61% 29.91 0.0
02 02:15 NW 8 10.00 Overcast OVC055 56.3 42.4 60% 29.92 0.0
02 01:55 NW 7 10.00 Overcast OVC055 56.3 43.9 64 53.2 63% 29.92 0.0
02 01:35 NW 7 10.00 Overcast OVC065 56.1 44.6 65% 29.92 0.0
02 01:15 NW 7 10.00 Overcast OVC065 56.3 45.3 67% 29.92 0.0
02 00:55 Calm 10.00 Overcast OVC070 53.4 49.1 85% 29.92 0.0
02 00:35 Calm 10.00 Overcast OVC070 53.4 48.9 85% 29.93 0.0
02 00:15 Calm 10.00 Light Rain OVC070 54.3 47.8 79% 29.92 0.0
01 23:55 Calm 10.00 Light Rain OVC070 56.8 44.1 63% 29.91 0.0
01 23:35 Calm 10.00 Overcast OVC070 57.2 43 59% 29.91 0.0
01 23:15 Calm 10.00 Overcast OVC080 57.4 42.6 58% 29.89 0.0
01 22:55 SE 3 10.00 Overcast BKN080 OVC100 57.6 42.4 57% 29.89 0.0
01 22:35 S 3 10.00 Overcast BKN080 OVC120 57.7 42.1 56% 29.89 0.0
01 22:15 SE 6 10.00 Overcast SCT090 OVC120 58.1 41.9 55% 29.89 0.0
01 21:55 SE 5 10.00 Overcast OVC090 58.5 41.2 53% 29.89 0.0
01 21:35 SE 3 10.00 Overcast OVC090 59.2 40.3 50% 29.88 0.0
01 21:15 E 3 10.00 Overcast BKN090 OVC120 59.7 39.4 47% 29.88 0.0
01 20:55 SE 6 10.00 Overcast BKN100 OVC120 60.3 38.8 45% 29.86 0.0
01 20:35 SE 6 10.00 Overcast SCT100 OVC120 62.2 37.2 40% 29.85 0.0
01 20:15 SE 7 10.00 Overcast OVC110 63.7 35.4 35% 29.85 0.0
01 19:55 SE 7 10.00 Mostly Cloudy BKN110 64 34.9 67.5 63.5 34% 29.84 0.0
01 19:35 SE 6 10.00 Mostly Cloudy BKN110 64.9 34.7 33% 29.84 0.0
01 19:15 SE 6 10.00 Partly Cloudy SCT120 65.1 34.5 32% 29.84 0.0
01 18:55 SE 7 10.00 Partly Cloudy SCT120 66 35.4 32% 29.84 0.0
01 18:35 S 7 10.00 Fair CLR 66.6 34.5 31% 29.84 0.0
01 18:15 S 5 10.00 Fair CLR 66.9 34.5 30% 29.85 0.0
01 17:55 S 8 10.00 Fair CLR 66.7 34.3 30% 29.85 0.0
01 17:35 S 8 10.00 Fair CLR 66.7 34.9 31% 29.86 0.0
01 17:15 S 8 10.00 Fair CLR 67.1 34.9 30% 29.85 0.0
01 16:55 S 8 10.00 Fair CLR 66.4 35.4 32% 29.85 0.0
01 16:35 S 7 10.00 Fair CLR 66.6 34 30% 29.86 0.0
01 16:15 SW 10 10.00 Fair CLR 66.9 34.2 30% 29.87 0.0
01 15:55 S 8 10.00 Fair CLR 66.2 34.3 31% 29.89 0.0
01 15:35 S 8 10.00 Fair CLR 65.7 36.9 35% 29.89 0.0
01 15:15 S 8 10.00 Fair CLR 65.7 34 31% 29.9 0.0
01 14:55 SW 7 10.00 Fair CLR 64.8 33.4 31% 29.91 0.0
01 14:35 SW 8 10.00 Fair CLR 64.9 32.9 30% 29.92 0.0
01 14:15 SW 8 10.00 Fair CLR 64.2 34.2 33% 29.92 0.0
01 13:55 S 8 10.00 Fair CLR 63.5 34.3 64.2 47.3 34% 29.93 0.0
01 13:35 SW 9 10.00 Fair CLR 63.3 33.8 33% 29.93 0.0
01 13:15 W 7 10.00 Fair CLR 62.4 34.3 35% 29.94 0.0
01 12:55 S 5 10.00 Fair CLR 61.3 32.7 34% 29.95 0.0
01 12:35 S 3 10.00 Fair CLR 61.7 32.5 34% 29.95 0.0
01 12:15 SW 3 10.00 Fair CLR 61.2 34 36% 29.96 0.0
01 11:55 SE 7 10.00 Fair CLR 59.7 33.4 37% 29.97 0.0
01 11:35 Calm 10.00 Fair CLR 59 32 36% 29.98 0.0
01 11:15 NW 6 10.00 Fair CLR 58.6 34.9 41% 29.99 0.0
01 10:55 NE 5 10.00 Fair CLR 57.2 33.4 41% 29.99 0.0
01 10:35 N 5 10.00 Fair CLR 57 34.2 42% 29.99 0.0
01 10:15 N 5 10.00 Fair CLR 56.5 34.2 43% 29.99 0.0
01 09:55 Calm 10.00 Fair CLR 55.8 36.1 48% 30 0.0
01 09:35 SE 3 10.00 Fair CLR 55.4 36.7 50% 30 0.0
01 09:15 Calm 10.00 Fair CLR 53.8 37.2 54% 30 0.0
01 08:55 N 6 10.00 Fair CLR 53.1 37.8 56% 30.01 0.0
01 08:35 N 7 10.00 Fair CLR 51.8 38.8 61% 30.01 0.0
01 08:15 N 5 10.00 Fair CLR 50 40.5 70% 49 30.02 0.0
01 07:55 Calm 10.00 Fair CLR 46.8 41 47.1 37.8 80% 30.01 0.0
01 07:35 Calm 10.00 Fair CLR 43.5 41 91% 30.01 0.0
01 07:15 Calm 10.00 Fair CLR 41.2 39.4 93% 30 0.0
01 06:55 Calm 10.00 Fair CLR 39.6 37.8 93% 30 0.0
01 06:35 Calm 10.00 Fair CLR 39 37.6 95% 30 0.0
01 06:15 Calm 10.00 Fair CLR 38.3 37 95% 29.99 0.0
01 05:55 Calm 10.00 Fair CLR 38.1 36.7 95% 29.99 0.0
01 05:35 Calm 10.00 Fair CLR 38.1 36.7 95% 29.99 0.0
01 05:15 Calm 10.00 Fair CLR 38.3 37 95% 29.99 0.0
01 04:55 Calm 10.00 Fair CLR 38.5 37.2 95% 29.99 0.0
01 04:35 Calm 10.00 Fair CLR 38.5 37 95% 29.99 0.0
01 04:15 Calm 10.00 Fair CLR 38.7 37.2 95% 29.99 0.0
01 03:55 Calm 10.00 Fair CLR 39 37.4 94% 29.98 0.0
01 03:35 Calm 10.00 Fair CLR 39.7 37.8 93% 29.98 0.0
01 03:15 Calm 10.00 Fair CLR 39.7 37.9 93% 29.97 0.0
01 02:55 Calm 10.00 Fair CLR 39.9 37.8 92% 29.97 0.0
01 02:35 Calm 10.00 Fair CLR 40.8 38.3 91% 29.97 0.0
01 02:15 Calm 10.00 Fair CLR 40.8 38.3 91% 29.97 0.0
01 01:55 Calm 10.00 Fair CLR 41.9 38.3 58.6 41.5 87% 29.97 0.0
01 01:35 Calm 10.00 Fair CLR 42.3 38.7 87% 29.97 0.0
01 01:15 SE 3 10.00 Fair CLR 43.3 38.8 84% 29.97 0.0
Date Time (edt) Wind (mph) Vis. (mi.) Weather Sky Cond. Air Dwpt Max. Min. Relative Humidity Wind Chill (°F) Heat Index (°F) altimeter (in) sea level (mb) 1 hr 3 hr 6 hr
6 hour
Temperature (ºF) Pressure Precipitation (in)